Weather at Miss Kittys Strip Airport

Public forecast

Using degrees Fahrenheit for public forecast. Weather courtesy of forecast.io.

Closest aviation weather report (METAR) to Miss Kittys Strip Airport

Closest report is Mc Minnville Municipal Airport, 4.9 nm (9.1 km) ENE. Retrieved 2021/07/24 21:53 UTC (49 minutes ago):

KMMV 242153Z AUTO 03011KT 10SM CLR 32/11 A3004 RMK AO2 SLP169 T03220111

Closest aviation forecast (TAF) to Miss Kittys Strip Airport

Closest forecast is Salem Municipal Airport/McNary Field, 17.7 nm (32.8 km) SE. Retrieved 2021/07/24 18:27 UTC (4 hours ago):

TAF KSLE 241723Z 2418/2518 01010KT P6SM SKC FM242200 36011G20KT P6SM SKC FM250300 34010KT P6SM SKC FM250700 33004KT P6SM SKC